• Join FlightAware (Why Join?)
  • Login
  • US Flag 
03:46PM EDT


 

Airport Tracker/Info


-or-


 

Live Flight TrackerFlight Track Log ✈ N5352K ✈ 30-Sep-2013 ✈ KOPF - KFMY

Flight Track Log - Related Links

Times and Time Zones

All times are in EDT time to prevent confusion due to time zone crossing. See the N5352K flight status page for this flight to view local times or setup timezone preferences in your user account.

Time Position Orientation Groundspeed Altitude Reporting Facility
EDT Latitude Longitude Course Direction KTS MPH feet Rate Location/Type
01:00PM 25.9160 -80.2340 90° East 72 83 1,400  Level FlightAware
01:01PM 25.9180 -80.2270 72° East 77 89 1,600 600 Climbing FlightAware
01:01PM 25.9220 -80.2250 24° Northeast 82 94 1,700 540 Climbing FlightAware
01:01PM 25.9290 -80.2260 353° North 82 94 1,900 540 Climbing FlightAware
01:01PM 25.9340 -80.2270 350° North 85 98 2,000 600 Climbing FlightAware
01:01PM 25.9370 -80.2280 343° North 87 100 2,100 180 Climbing FlightAware
01:02PM 25.9460 -80.2340 329° Northwest 96 110 2,100  Level FlightAware
01:02PM 25.9510 -80.2360 340° North 102 117 2,100 -240 Level FlightAware
01:02PM 25.9600 -80.2400 338° Northwest 105 121 2,000 -120 Descending FlightAware
01:03PM 25.9740 -80.2450 342° North 104 120 2,000 60 Level FlightAware
01:03PM 25.9820 -80.2470 347° North 99 114 2,100 480 Climbing FlightAware
01:03PM 25.9900 -80.2490 347° North 86 99 2,300 660 Climbing FlightAware
01:04PM 25.9990 -80.2520 343° North 99 114 2,500 600 Climbing FlightAware
01:04PM 26.0030 -80.2540 336° Northwest 96 110 2,600 600 Climbing FlightAware
01:04PM 26.0060 -80.2570 318° Northwest 91 105 2,700 360 Climbing FlightAware
01:04PM 26.0060 -80.2590 270° West 92 106 2,700 300 Level FlightAware
01:05PM 26.0060 -80.2720 270° West 95 109 2,900 660 Climbing FlightAware
01:05PM 26.0060 -80.2850 270° West 96 110 3,300 900 Climbing FlightAware
01:05PM 26.0060 -80.2970 270° West 96 110 3,600 660 Climbing FlightAware
01:06PM 26.0060 -80.3070 270° West 91 105 3,800 540 Climbing FlightAware
01:06PM 26.0060 -80.3120 270° West 89 102 3,900 300 Climbing FlightAware
01:06PM 26.0050 -80.3230 264° West 91 105 4,000 120 Climbing FlightAware
01:07PM 26.0050 -80.3330 270° West 97 112 4,000 120 Level FlightAware
01:07PM 26.0050 -80.3410 270° West 101 116 4,100 60 Climbing FlightAware
01:08PM 26.0040 -80.3600 267° West 107 123 4,100  Level FlightAware
01:08PM 26.0020 -80.3730 260° West 102 117 4,100  Level FlightAware
01:08PM 26.0010 -80.3840 264° West 100 115 4,100  Level FlightAware
01:09PM 26.0000 -80.3960 265° West 105 121 4,100 -180 Level FlightAware
01:09PM 25.9990 -80.4040 262° West 105 121 4,000 -180 Descending FlightAware
01:09PM 25.9990 -80.4140 270° West 100 115 4,000  Level FlightAware
01:10PM 25.9980 -80.4220 262° West 99 114 4,000 300 Level FlightAware
01:10PM 25.9990 -80.4340 275° West 102 117 4,200 180 Climbing FlightAware
01:10PM 26.0000 -80.4390 283° West 112 129 4,100 -240 Descending FlightAware
01:10PM 26.0010 -80.4510 275° West 107 123 4,100  Level FlightAware
01:11PM 25.9990 -80.4660 262° West 101 116 4,100 -120 Level FlightAware
01:11PM 25.9960 -80.4820 258° West 104 120 4,000  Descending FlightAware
01:12PM 25.9960 -80.4890 270° West 97 112 4,100 240 Climbing FlightAware
01:12PM 25.9970 -80.4910 299° West 99 114 4,100 -240 Level FlightAware
01:12PM 26.0010 -80.5010 294° West 98 113 4,000 -240 Descending FlightAware
01:12PM 26.0030 -80.5060 294° West 102 117 4,000 240 Level FlightAware
01:12PM 26.0070 -80.5120 307° West 95 109 4,100  Climbing FlightAware
01:13PM 26.0110 -80.5180 307° West 99 114 4,000 -240 Descending FlightAware
01:13PM 26.0160 -80.5230 318° Northwest 94 108 4,000  Level FlightAware
01:13PM 26.0230 -80.5310 314° West 94 108 4,000 120 Level FlightAware
01:14PM 26.0290 -80.5370 318° Northwest 95 109 4,100 120 Climbing FlightAware
01:14PM 26.0380 -80.5470 315° West 98 113 4,100  Level FlightAware
01:14PM 26.0420 -80.5510 318° Northwest 98 113 4,100  Level FlightAware
01:15PM 26.0470 -80.5560 318° Northwest 101 116 4,100  Level FlightAware
01:15PM 26.0580 -80.5660 321° Northwest 107 123 4,100  Level FlightAware
01:15PM 26.0650 -80.5720 322° Northwest 101 116 4,100 -180 Level FlightAware
01:16PM 26.0700 -80.5780 313° West 106 122 4,000 -240 Descending FlightAware
01:16PM 26.0760 -80.5850 314° West 102 117 4,000 60 Level FlightAware
01:16PM 26.0830 -80.5930 314° West 104 120 60 Descending FlightAware
01:17PM 26.0930 -80.6060 311° West 102 117 4,100 4,020 Climbing FlightAware
01:17PM 26.1020 -80.6180 310° West 97 112 4,100  Level FlightAware
01:18PM 26.1090 -80.6250 318° Northwest 96 110 4,100  Level FlightAware
01:18PM 26.1180 -80.6340 318° Northwest 106 122 4,100  Level FlightAware
01:18PM 26.1280 -80.6430 321° Northwest 105 121 4,100 -120 Level FlightAware
01:19PM 26.1370 -80.6520 318° Northwest 99 114 4,000 -180 Descending FlightAware
01:19PM 26.1430 -80.6580 318° Northwest 98 113 4,000  Level FlightAware
01:20PM 26.1530 -80.6690 315° West 97 112 4,000  Level FlightAware
01:20PM 26.1600 -80.6770 314° West 104 120 4,000 240 Level FlightAware
01:20PM 26.1670 -80.6860 311° West 88 101 4,200 540 Climbing FlightAware
01:21PM 26.1710 -80.6920 307° West 88 101 4,400 480 Climbing FlightAware
01:21PM 26.1770 -80.6990 314° West 86 99 4,500 420 Climbing FlightAware
01:21PM 26.1820 -80.7070 305° West 91 105 4,700 420 Climbing FlightAware
01:22PM 26.1870 -80.7150 305° West 92 106 4,800 420 Climbing FlightAware
01:22PM 26.1920 -80.7230 305° West 96 110 5,000 360 Climbing FlightAware
01:22PM 26.1940 -80.7270 299° West 94 108 5,000 360 Level FlightAware
01:22PM 26.1980 -80.7360 296° West 96 110 5,200 480 Climbing FlightAware
01:23PM 26.2020 -80.7430 302° West 97 112 5,300 240 Climbing FlightAware
01:23PM 26.2070 -80.7540 297° West 94 108 5,400 360 Climbing FlightAware
01:23PM 26.2120 -80.7650 297° West 93 107 5,600 420 Climbing FlightAware
01:24PM 26.2150 -80.7720 296° West 100 115 5,700 480 Climbing FlightAware
01:24PM 26.2200 -80.7800 305° West 97 112 5,900 420 Climbing FlightAware
01:24PM 26.2270 -80.7870 318° Northwest 92 106 6,000 120 Climbing FlightAware
01:25PM 26.2310 -80.7920 312° West 100 115 6,000 120 Level FlightAware
01:25PM 26.2400 -80.8020 315° West 94 108 6,100 120 Climbing FlightAware
01:25PM 26.2470 -80.8090 318° Northwest 97 112 6,100  Level FlightAware
01:26PM 26.2540 -80.8160 318° Northwest 94 108 6,100  Level FlightAware
01:26PM 26.2590 -80.8210 318° Northwest 99 114 6,100  Level FlightAware
01:26PM 26.2680 -80.8310 315° West 117 135 6,100  Level FlightAware
01:27PM 26.2740 -80.8370 318° Northwest 110 127 6,100 -180 Level FlightAware
01:27PM 26.2810 -80.8440 318° Northwest 109 125 6,000 -240 Descending FlightAware
01:27PM 26.2850 -80.8480 318° Northwest 99 114 6,000  Level FlightAware
01:28PM 26.2940 -80.8570 318° Northwest 98 113 6,000  Level FlightAware
01:28PM 26.3020 -80.8640 322° Northwest 103 119 6,000  Level FlightAware
01:28PM 26.3090 -80.8710 318° Northwest 98 113 6,000  Level FlightAware
01:28PM 26.3140 -80.8760 318° Northwest 96 110 6,000  Level FlightAware
01:29PM 26.3210 -80.8830 318° Northwest 92 106 6,000 -180 Level FlightAware
01:29PM 26.3270 -80.8880 323° Northwest 104 120 5,900 -420 Descending FlightAware
01:29PM 26.3320 -80.8920 324° Northwest 95 109 5,800 -720 Descending FlightAware
01:30PM 26.3400 -80.9000 318° Northwest 105 121 5,500 -840 Descending FlightAware
01:30PM 26.3460 -80.9050 323° Northwest 103 119 5,300 -840 Descending FlightAware
01:30PM 26.3540 -80.9110 326° Northwest 105 121 5,000 -780 Descending FlightAware
01:31PM 26.3620 -80.9180 322° Northwest 108 124 4,800 -900 Descending FlightAware
01:31PM 26.3700 -80.9250 322° Northwest 108 124 4,400 -1,080 Descending FlightAware
01:31PM 26.3760 -80.9310 318° Northwest 106 122 4,200 -540 Descending FlightAware
01:31PM 26.3830 -80.9380 318° Northwest 97 112 4,100 -180 Descending FlightAware
01:32PM 26.3890 -80.9460 310° West 98 113 4,100  Level FlightAware
01:32PM 26.3990 -80.9580 313° West 104 120 4,100 -180 Level FlightAware
01:33PM 26.4040 -80.9640 313° West 101 116 4,000 -180 Descending FlightAware
01:33PM 26.4120 -80.9730 315° West 103 119 4,000  Level FlightAware
01:33PM 26.4170 -80.9790 313° West 95 109 4,000  Level FlightAware
01:34PM 26.4240 -80.9860 318° Northwest 92 106 4,000 240 Level FlightAware
01:34PM 26.4260 -80.9880 318° Northwest 101 116 4,100  Climbing FlightAware
01:34PM 26.4330 -80.9950 318° Northwest 99 114 4,000 -180 Descending FlightAware
01:34PM 26.4380 -81.0000 318° Northwest 99 114 4,000  Level FlightAware
01:35PM 26.4450 -81.0080 314° West 97 112 4,000  Level FlightAware
01:35PM 26.4510 -81.0140 318° Northwest 95 109 4,000  Level FlightAware
01:35PM 26.4610 -81.0250 315° West 95 109 4,000  Level FlightAware
01:37PM 26.4930 -81.0560 319° Northwest 4,100  Climbing FlightAware
01:38PM 26.5164 -81.0819 319° Northwest 106 122 4,000 -60 Descending Miami Center
01:39PM 26.5344 -81.1058 310° West 106 122 4,000  Level Miami Center
01:40PM 26.5464 -81.1294 299° West 101 116 4,000  Level Miami Center
01:41PM 26.5644 -81.1533 310° West 101 116 4,100  Climbing Miami Center
01:42PM 26.5869 -81.1728 322° Northwest 101 116 4,100  Level Miami Center
01:43PM 26.6092 -81.1944 319° Northwest 101 116 4,100  Level Miami Center
01:44PM 26.6314 -81.2161 319° Northwest 101 116 4,100  Level Miami Center
01:46PM 26.6620 -81.2437 321° Northwest  Level FlightAware Approximate
01:53PM 26.8019 -81.3700 321° Northwest  Level FlightAware Approximate
01:54PM 26.8134 -81.3903 242° Southwest  Level FlightAware Approximate
01:55PM 26.8014 -81.4157 242° Southwest  Level FlightAware Approximate
01:56PM 26.7894 -81.4411 242° Southwest  Level FlightAware Approximate
01:57PM 26.7774 -81.4665 242° Southwest  Level FlightAware Approximate
01:58PM 26.7654 -81.4919 242° Southwest  Level FlightAware Approximate
01:59PM 26.7533 -81.5173 242° Southwest  Level FlightAware Approximate
02:00PM 26.7413 -81.5427 242° Southwest  Level FlightAware Approximate
02:01PM 26.7293 -81.5681 242° Southwest  Level FlightAware Approximate
02:02PM 26.7173 -81.5935 242° Southwest  Level FlightAware Approximate
02:03PM 26.7052 -81.6189 242° Southwest  Level FlightAware Approximate
02:04PM 26.6932 -81.6442 242° Southwest  Level FlightAware Approximate
02:05PM 26.6811 -81.6696 242° Southwest  Level FlightAware Approximate
02:06PM 26.6691 -81.6949 242° Southwest  Level FlightAware Approximate
02:07PM 26.6535 -81.7176 230° Southwest  Level FlightAware Approximate
02:08PM 26.6370 -81.7396 230° Southwest  Level FlightAware Approximate
02:09PM 26.6205 -81.7616 230° Southwest  Level FlightAware Approximate
02:10PM 26.6086 -81.7868 246° West  Level FlightAware Approximate
02:11PM 26.5981 -81.8130 246° West  Level FlightAware Approximate
02:12PM 26.5876 -81.8392 246° West  Level FlightAware Approximate
02:13PM 26.5833 -81.8500 246° West  Level FlightAware Approximate
02:14PM 26.5866 -81.8633 246° West  Level Estimated
02:15PM 26.5866 -81.8633 246° West  Level Estimated
02:16PM 26.5866 -81.8633 246° West  Level Estimated
02:17PM 26.5866 -81.8633 246° West  Level Estimated
02:18PM 26.5866 -81.8633 246° West  Level Estimated
02:19PM 26.5866 -81.8633 246° West  Level Estimated
02:20PM 26.5866 -81.8633 246° West  Level Estimated
02:21PM 26.5866 -81.8633 246° West  Level Estimated
02:22PM 26.5866 -81.8633 246° West  Level Estimated
02:23PM 26.5866 -81.8633 246° West  Level Estimated
02:24PM 26.5866 -81.8633 246° West  Level Estimated
02:25PM 26.5866 -81.8633 246° West  Level Estimated
02:26PM 26.5866 -81.8633 246° West  Level Estimated